logo dgac
Miércoles 24 de Enero del 2018
Buscar por aerodromo o helipuerto
Ingrese nombre de aeródromo, localidad o designador OACI:
METAR del 24-01-2018 a las 00:00 UTC
METAR SCTB 240000Z 25004KT CAVOK 24/08 Q1013
Viento: dirección 250 grados, velocidad 4 nudos
Visibilidad: 10 km o más,
    sin nubes bajo los 5.000 pies o bajo del MSA (Mínimo de Seguridad del Aeródromo),
    sin cumulonimbus, y sin fenómenos de tiempo significativo en el aeródromo o alrededores
Temperatura: 24 °C
Rocío: 8 °C
Humedad_relativa: 36%
Presión: 1013 hPa
METAR del 23-01-2018 a las 23:00 UTC
METAR SCTB 232300Z 22005KT CAVOK 26/05 Q1012
Viento: dirección 220 grados, velocidad 5 nudos
Visibilidad: 10 km o más,
    sin nubes bajo los 5.000 pies o bajo del MSA (Mínimo de Seguridad del Aeródromo),
    sin cumulonimbus, y sin fenómenos de tiempo significativo en el aeródromo o alrededores
Temperatura: 26 °C
Rocío: 5 °C
Humedad_relativa: 26%
Presión: 1012 hPa
METAR del 23-01-2018 a las 22:00 UTC
METAR SCTB 232200Z 22006KT 9999 FEW060 28/02 Q1012
Viento: dirección 220 grados, velocidad 6 nudos
Visibilidad: 10 km o más
Nubes: Escasa nubosidad a 6000 pies sobre el nivel del aeródromo
Temperatura: 28 °C
Rocío: 2 °C
Humedad_relativa: 19%
Presión: 1012 hPa
METAR del 23-01-2018 a las 21:00 UTC
METAR SCTB 232100Z 22008KT 9999 FEW060 28/03 Q1013
Viento: dirección 220 grados, velocidad 8 nudos
Visibilidad: 10 km o más
Nubes: Escasa nubosidad a 6000 pies sobre el nivel del aeródromo
Temperatura: 28 °C
Rocío: 3 °C
Humedad_relativa: 20%
Presión: 1013 hPa
METAR del 23-01-2018 a las 20:00 UTC
METAR SCTB 232000Z 21008KT 9999 FEW060 29/05 Q1013
Viento: dirección 210 grados, velocidad 8 nudos
Visibilidad: 10 km o más
Nubes: Escasa nubosidad a 6000 pies sobre el nivel del aeródromo
Temperatura: 29 °C
Rocío: 5 °C
Humedad_relativa: 22%
Presión: 1013 hPa
METAR del 23-01-2018 a las 19:00 UTC
METAR SCTB 231900Z 21008KT 9999 FEW060 28/09 Q1013
Viento: dirección 210 grados, velocidad 8 nudos
Visibilidad: 10 km o más
Nubes: Escasa nubosidad a 6000 pies sobre el nivel del aeródromo
Temperatura: 28 °C
Rocío: 9 °C
Humedad_relativa: 30%
Presión: 1013 hPa
METAR del 23-01-2018 a las 18:00 UTC
METAR SCTB 231800Z 22008KT 8000 FEW060 27/11 Q1013
Viento: dirección 220 grados, velocidad 8 nudos
Visibilidad: 8000 metros
Nubes: Escasa nubosidad a 6000 pies sobre el nivel del aeródromo
Temperatura: 27 °C
Rocío: 11 °C
Humedad_relativa: 37%
Presión: 1013 hPa
METAR del 23-01-2018 a las 17:00 UTC
METAR SCTB 231700Z 21005KT 6000 NSC 25/11 Q1013
Viento: dirección 210 grados, velocidad 5 nudos
Visibilidad: 6000 metros
Sin nubes bajo los 5000 pies o bajo del MSA (Mínimo de Seguridad del Aeródromo)
Temperatura: 25 °C
Rocío: 11 °C
Humedad_relativa: 41%
Presión: 1013 hPa
METAR del 23-01-2018 a las 16:00 UTC
METAR SCTB 231600Z 23006KT 6000 NSC 24/12 Q1014
Viento: dirección 230 grados, velocidad 6 nudos
Visibilidad: 6000 metros
Sin nubes bajo los 5000 pies o bajo del MSA (Mínimo de Seguridad del Aeródromo)
Temperatura: 24 °C
Rocío: 12 °C
Humedad_relativa: 47%
Presión: 1014 hPa
METAR del 23-01-2018 a las 15:00 UTC
METAR SCTB 231500Z 26005KT 5000 HZ NSC 22/12 Q1014
Viento: dirección 260 grados, velocidad 5 nudos
Visibilidad: 5000 metros
Bruma
Sin nubes bajo los 5000 pies o bajo del MSA (Mínimo de Seguridad del Aeródromo)
Temperatura: 22 °C
Rocío: 12 °C
Humedad_relativa: 53%
Presión: 1014 hPa